Time;durP1;ratioP1;P1;durP2;ratioP2;P2;SDS_P1;SDS_P2;PMS_P1;PMS_P2;Temp;Humidity;BMP_temperature;BMP_pressure;BME280_temperature;BME280_humidity;BME280_pressure;Samples;Min_cycle;Max_cycle;Signal;HPM_P1;HPM_P2
2021/08/17 00:00:31;;;;;;;2.78;1.85;;;14.60;99.90;;;;;;4977265;28;20074;-67
2021/08/17 00:02:59;;;;;;;2.83;1.10;;;14.60;99.90;;;;;;4976565;28;20054;-67
2021/08/17 00:05:26;;;;;;;2.22;1.60;;;14.60;99.90;;;;;;4975404;28;20127;-71
2021/08/17 00:07:55;;;;;;;2.95;1.10;;;14.60;99.90;;;;;;4976853;28;20042;-69
2021/08/17 00:10:23;;;;;;;1.45;1.33;;;14.60;99.90;;;;;;4972971;28;20093;-71
2021/08/17 00:12:50;;;;;;;2.70;1.20;;;14.60;99.90;;;;;;4973966;28;20133;-65
2021/08/17 00:15:17;;;;;;;2.30;1.45;;;14.60;99.90;;;;;;4972872;28;20047;-65
2021/08/17 00:17:44;;;;;;;1.50;1.40;;;14.60;99.90;;;;;;4973786;28;20074;-65
2021/08/17 00:20:13;;;;;;;2.25;1.52;;;14.50;99.90;;;;;;4973771;28;20121;-67
2021/08/17 00:22:40;;;;;;;3.47;1.52;;;14.50;99.90;;;;;;4973593;28;20057;-66
2021/08/17 00:25:09;;;;;;;1.80;1.52;;;14.50;99.90;;;;;;4973778;28;20130;-66
2021/08/17 00:27:36;;;;;;;1.73;1.58;;;14.50;99.90;;;;;;4972592;28;20153;-65
2021/08/17 00:30:07;;;;;;;3.33;1.63;;;14.50;99.90;;;;;;4973817;28;20078;-65
2021/08/17 00:32:34;;;;;;;3.67;1.23;;;14.40;99.90;;;;;;4973852;28;20106;-65
2021/08/17 00:35:01;;;;;;;4.43;1.90;;;14.40;99.90;;;;;;4973550;28;20074;-67
2021/08/17 00:37:30;;;;;;;4.63;1.77;;;14.40;99.90;;;;;;4971652;28;20109;-71
2021/08/17 00:39:58;;;;;;;2.17;1.67;;;14.40;99.90;;;;;;4973337;28;20446;-65
2021/08/17 00:42:25;;;;;;;5.00;1.98;;;14.40;99.90;;;;;;4973851;28;20101;-68
2021/08/17 00:44:52;;;;;;;2.50;2.33;;;14.40;99.90;;;;;;4973678;28;20077;-65
2021/08/17 00:47:19;;;;;;;2.47;1.65;;;14.40;99.90;;;;;;4986939;28;20078;-65
2021/08/17 00:49:46;;;;;;;5.85;1.80;;;14.40;99.90;;;;;;4972973;28;20105;-64
2021/08/17 00:52:13;;;;;;;2.72;1.60;;;14.40;99.90;;;;;;4973331;28;20445;-68
2021/08/17 00:54:44;;;;;;;4.00;2.15;;;14.40;99.90;;;;;;4987953;28;20390;-68
2021/08/17 00:57:14;;;;;;;2.50;2.30;;;14.40;99.90;;;;;;4973394;28;20051;-68
2021/08/17 00:59:41;;;;;;;1.60;1.50;;;14.40;99.90;;;;;;4971736;28;20039;-65
2021/08/17 01:02:08;;;;;;;2.08;1.75;;;14.40;99.90;;;;;;4973122;28;20098;-66
2021/08/17 01:04:38;;;;;;;3.67;1.77;;;14.40;99.90;;;;;;4973261;28;20074;-65
2021/08/17 01:07:07;;;;;;;1.95;1.85;;;14.30;99.90;;;;;;4973350;28;20054;-65
2021/08/17 01:09:35;;;;;;;1.70;1.58;;;14.30;99.90;;;;;;4971925;28;20065;-65
2021/08/17 01:12:02;;;;;;;2.58;1.77;;;14.30;99.90;;;;;;4973129;28;20077;-67
2021/08/17 01:14:30;;;;;;;2.55;2.17;;;14.30;99.90;;;;;;4973350;28;20497;-64
2021/08/17 01:16:58;;;;;;;4.82;1.58;;;14.30;99.90;;;;;;4973324;28;20054;-64
2021/08/17 01:19:25;;;;;;;3.78;2.00;;;14.30;99.90;;;;;;4971339;28;20574;-66
2021/08/17 01:21:52;;;;;;;1.92;1.65;;;14.30;99.90;;;;;;4972461;28;20089;-65
2021/08/17 01:24:19;;;;;;;2.50;1.63;;;14.20;99.90;;;;;;4972833;28;20089;-67
2021/08/17 01:26:47;;;;;;;3.70;1.33;;;14.20;99.90;;;;;;4972979;28;20117;-65
2021/08/17 01:29:20;;;;;;;4.05;2.38;;;14.20;99.90;;;;;;4972792;28;20434;-67
2021/08/17 01:31:48;;;;;;;2.10;1.90;;;14.20;99.90;;;;;;4971502;28;20042;-65
2021/08/17 01:34:14;;;;;;;6.30;2.72;;;14.20;99.90;;;;;;4973010;28;20047;-69
2021/08/17 01:36:41;;;;;;;6.45;2.25;;;14.10;99.90;;;;;;4972599;28;20201;-67
2021/08/17 01:39:08;;;;;;;2.65;1.50;;;14.10;99.90;;;;;;4972662;28;20058;-66
2021/08/17 01:41:35;;;;;;;6.00;2.15;;;14.10;99.90;;;;;;4971028;28;21376;-66
2021/08/17 01:44:13;;;;;;;2.88;2.20;;;14.20;99.90;;;;;;4972434;28;20129;-68
2021/08/17 01:46:44;;;;;;;2.33;1.58;;;14.10;99.90;;;;;;4972995;28;20078;-68
2021/08/17 01:49:16;;;;;;;5.40;1.70;;;14.10;99.90;;;;;;4972805;28;20462;-67
2021/08/17 01:51:48;;;;;;;2.30;1.90;;;14.10;99.90;;;;;;4971131;28;20477;-65
2021/08/17 01:54:18;;;;;;;2.03;1.75;;;14.10;99.90;;;;;;4972516;28;20073;-64
2021/08/17 01:56:46;;;;;;;3.10;2.75;;;14.10;99.90;;;;;;4972395;28;20113;-71
2021/08/17 01:59:14;;;;;;;2.55;2.35;;;14.10;99.90;;;;;;4972502;28;20047;-67
2021/08/17 02:01:42;;;;;;;4.65;2.15;;;14.10;99.90;;;;;;4971033;28;20046;-70
2021/08/17 02:04:09;;;;;;;2.53;2.35;;;14.10;99.90;;;;;;4972475;28;20507;-67
2021/08/17 02:06:36;;;;;;;4.63;2.42;;;14.10;99.90;;;;;;4972271;28;20138;-67
2021/08/17 02:09:03;;;;;;;4.82;2.38;;;14.10;99.90;;;;;;4971822;28;20042;-67
2021/08/17 02:11:30;;;;;;;2.88;2.33;;;14.10;99.90;;;;;;4969858;28;20431;-70
2021/08/17 02:13:57;;;;;;;3.63;2.10;;;14.10;99.90;;;;;;4972247;28;20081;-67
2021/08/17 02:16:24;;;;;;;3.33;2.22;;;14.10;99.90;;;;;;4971683;28;20089;-68
2021/08/17 02:18:51;;;;;;;5.07;1.70;;;14.10;99.90;;;;;;4972053;28;20051;-67
2021/08/17 02:21:18;;;;;;;2.72;1.73;;;14.20;99.90;;;;;;4970336;28;20086;-69
2021/08/17 02:23:45;;;;;;;4.10;2.42;;;14.20;99.90;;;;;;4971654;28;20043;-70
2021/08/17 02:26:11;;;;;;;4.32;2.90;;;14.20;99.90;;;;;;4972038;28;20458;-66
2021/08/17 02:28:38;;;;;;;3.00;2.72;;;14.20;99.90;;;;;;4972209;28;20051;-67
2021/08/17 02:31:05;;;;;;;2.85;2.35;;;14.20;99.90;;;;;;4971903;28;20199;-67
2021/08/17 02:33:32;;;;;;;4.07;2.50;;;14.20;99.90;;;;;;4969777;28;20111;-67
2021/08/17 02:35:59;;;;;;;3.65;2.30;;;14.30;99.90;;;;;;4971493;28;20047;-66
2021/08/17 02:38:26;;;;;;;4.88;2.42;;;14.30;99.90;;;;;;4971598;28;20058;-66
2021/08/17 02:40:53;;;;;;;3.88;3.28;;;14.30;99.90;;;;;;4971800;28;20440;-71
2021/08/17 02:43:24;;;;;;;3.70;2.90;;;14.30;99.90;;;;;;4970456;28;20046;-66
2021/08/17 02:45:52;;;;;;;4.03;2.92;;;14.40;99.90;;;;;;4971672;28;20047;-68
2021/08/17 02:48:19;;;;;;;6.05;3.63;;;14.40;99.90;;;;;;4971738;28;20125;-68
2021/08/17 02:50:46;;;;;;;8.45;3.83;;;14.40;99.90;;;;;;4971286;28;20089;-71
2021/08/17 02:53:14;;;;;;;3.45;2.72;;;14.40;99.90;;;;;;4972202;28;20097;-70
2021/08/17 02:55:42;;;;;;;4.30;2.83;;;14.50;99.90;;;;;;4970131;28;20066;-68
2021/08/17 02:58:09;;;;;;;4.15;3.75;;;14.50;99.90;;;;;;4971441;28;20074;-70
2021/08/17 03:00:37;;;;;;;3.00;2.70;;;14.50;99.90;;;;;;4971681;28;20055;-66
2021/08/17 03:03:04;;;;;;;3.35;3.05;;;14.50;99.90;;;;;;4971602;28;20461;-67
2021/08/17 03:05:32;;;;;;;7.60;3.90;;;14.50;99.90;;;;;;4970343;28;20485;-69
2021/08/17 03:08:02;;;;;;;4.57;3.03;;;14.50;99.90;;;;;;4971436;28;20047;-69
2021/08/17 03:10:35;;;;;;;4.05;2.63;;;14.50;99.90;;;;;;4971338;28;20058;-67
2021/08/17 03:13:03;;;;;;;3.65;2.85;;;14.50;99.90;;;;;;4971307;28;20051;-66
2021/08/17 03:15:32;;;;;;;3.92;2.03;;;14.50;99.90;;;;;;4970004;28;20055;-67
2021/08/17 03:18:06;;;;;;;2.97;2.63;;;14.50;99.90;;;;;;4971555;28;20051;-67
2021/08/17 03:20:34;;;;;;;4.90;3.45;;;14.50;99.90;;;;;;4971533;28;20051;-66
2021/08/17 03:23:02;;;;;;;3.42;3.17;;;14.50;99.90;;;;;;4971432;28;20520;-67
2021/08/17 03:25:29;;;;;;;3.85;2.75;;;14.50;99.90;;;;;;4970101;28;20094;-70
2021/08/17 03:27:56;;;;;;;3.85;3.05;;;14.50;99.90;;;;;;4971345;28;20047;-67
2021/08/17 03:30:25;;;;;;;3.20;2.65;;;14.50;99.90;;;;;;4971426;28;20434;-68
2021/08/17 03:32:53;;;;;;;2.50;2.28;;;14.40;99.90;;;;;;4971157;28;20574;-68
2021/08/17 03:35:21;;;;;;;3.60;3.28;;;14.40;99.90;;;;;;4969711;28;20057;-67
2021/08/17 03:37:48;;;;;;;2.88;2.60;;;14.50;99.90;;;;;;4970928;28;20042;-67
2021/08/17 03:40:18;;;;;;;3.33;3.03;;;14.50;99.90;;;;;;4970934;28;20054;-68
2021/08/17 03:42:45;;;;;;;4.40;3.90;;;14.50;99.90;;;;;;4971119;28;20090;-67
2021/08/17 03:45:15;;;;;;;4.75;3.90;;;14.50;99.90;;;;;;4974869;28;20070;-67
2021/08/17 03:47:42;;;;;;;4.53;4.13;;;14.40;99.90;;;;;;4972891;28;20050;-68
2021/08/17 03:50:12;;;;;;;4.07;3.67;;;14.50;99.90;;;;;;4974254;28;20468;-66
2021/08/17 03:52:40;;;;;;;4.95;4.00;;;14.40;99.90;;;;;;4974207;28;20081;-67
2021/08/17 03:55:07;;;;;;;6.85;3.75;;;14.50;99.90;;;;;;4974311;28;20137;-67
2021/08/17 03:57:35;;;;;;;4.82;4.38;;;14.50;99.90;;;;;;4972945;28;20047;-68
2021/08/17 04:00:04;;;;;;;6.07;4.53;;;14.50;99.90;;;;;;4974094;28;20075;-66
2021/08/17 04:02:38;;;;;;;5.95;4.28;;;14.50;99.90;;;;;;4974055;28;20051;-68
2021/08/17 04:05:06;;;;;;;5.07;4.68;;;14.50;99.90;;;;;;4974400;28;20051;-68
2021/08/17 04:07:33;;;;;;;5.43;4.93;;;14.50;99.90;;;;;;4972501;28;20070;-69
2021/08/17 04:10:00;;;;;;;4.70;4.30;;;14.50;99.90;;;;;;4974079;28;20046;-67
2021/08/17 04:12:27;;;;;;;7.07;5.60;;;14.50;99.90;;;;;;4974328;28;20132;-68
2021/08/17 04:14:54;;;;;;;5.63;5.03;;;14.50;99.90;;;;;;4973826;28;20077;-70
2021/08/17 04:17:21;;;;;;;5.13;4.55;;;14.50;99.90;;;;;;4972504;28;20462;-70
2021/08/17 04:19:48;;;;;;;5.88;5.07;;;14.60;99.90;;;;;;4974014;28;20078;-67
2021/08/17 04:22:15;;;;;;;7.25;4.88;;;14.50;99.90;;;;;;4973905;28;20051;-70
2021/08/17 04:24:42;;;;;;;6.57;5.35;;;14.60;99.90;;;;;;4974039;28;20518;-68
2021/08/17 04:27:09;;;;;;;4.97;4.47;;;14.60;99.90;;;;;;4973952;28;20105;-67
2021/08/17 04:29:37;;;;;;;7.55;4.60;;;14.60;99.90;;;;;;4972357;28;20134;-67
2021/08/17 04:32:06;;;;;;;7.97;4.93;;;14.60;99.90;;;;;;4973927;28;20475;-70
2021/08/17 04:34:33;;;;;;;6.97;3.83;;;14.60;99.90;;;;;;4973851;28;20097;-68
2021/08/17 04:37:00;;;;;;;6.45;5.10;;;14.70;99.90;;;;;;4973907;28;20397;-70
2021/08/17 04:39:28;;;;;;;7.38;6.68;;;14.70;99.90;;;;;;4972174;28;20169;-66
2021/08/17 04:41:55;;;;;;;5.68;4.50;;;14.70;99.90;;;;;;4988412;28;20081;-67
2021/08/17 04:44:22;;;;;;;4.70;3.63;;;14.70;99.90;;;;;;4973000;28;20118;-69
2021/08/17 04:46:49;;;;;;;4.22;3.83;;;14.80;99.90;;;;;;4973477;28;20051;-66
2021/08/17 04:49:16;;;;;;;6.65;4.65;;;14.80;99.90;;;;;;4972540;28;20466;-67
2021/08/17 04:51:43;;;;;;;6.72;3.95;;;14.90;99.90;;;;;;4973238;28;20475;-69
2021/08/17 04:54:10;;;;;;;5.10;3.50;;;14.90;99.90;;;;;;4973535;28;20109;-66
2021/08/17 04:56:37;;;;;;;3.00;2.80;;;14.90;99.90;;;;;;4972609;28;20125;-67
2021/08/17 04:59:04;;;;;;;3.08;2.50;;;14.90;99.90;;;;;;4973142;28;20097;-67
2021/08/17 05:01:31;;;;;;;3.60;3.28;;;15.00;99.90;;;;;;4971820;28;20046;-69
2021/08/17 05:03:59;;;;;;;5.20;3.03;;;15.00;99.90;;;;;;4973223;28;20062;-67
2021/08/17 05:06:25;;;;;;;1.92;1.83;;;15.00;99.90;;;;;;4973204;28;20125;-69
2021/08/17 05:08:52;;;;;;;6.07;2.38;;;15.00;99.90;;;;;;4973142;28;20078;-68
2021/08/17 05:11:19;;;;;;;3.30;2.10;;;15.00;99.90;;;;;;4971713;28;20113;-69
2021/08/17 05:13:46;;;;;;;3.95;2.50;;;15.00;99.90;;;;;;4972671;28;20051;-68
2021/08/17 05:16:13;;;;;;;3.53;2.55;;;15.10;99.90;;;;;;4972267;28;20106;-66
2021/08/17 05:18:40;;;;;;;3.95;2.90;;;15.10;99.90;;;;;;4972996;28;20155;-66
2021/08/17 05:21:07;;;;;;;5.85;2.03;;;15.10;99.90;;;;;;4973227;28;20220;-71
2021/08/17 05:23:34;;;;;;;2.33;2.13;;;15.20;99.90;;;;;;4971311;28;20089;-65
2021/08/17 05:26:01;;;;;;;2.22;1.92;;;15.20;99.90;;;;;;4973017;28;20101;-67
2021/08/17 05:28:28;;;;;;;4.13;2.17;;;15.30;99.90;;;;;;4972879;28;20409;-69
2021/08/17 05:30:54;;;;;;;3.33;1.92;;;15.30;99.90;;;;;;4972739;28;20122;-65
2021/08/17 05:33:21;;;;;;;2.17;1.75;;;15.30;99.90;;;;;;4971318;28;20043;-68
2021/08/17 05:35:48;;;;;;;3.05;2.22;;;15.40;99.90;;;;;;4972783;28;20055;-67
2021/08/17 05:38:15;;;;;;;2.47;2.00;;;15.40;99.90;;;;;;4972494;28;20138;-65
2021/08/17 05:40:42;;;;;;;6.70;2.25;;;15.40;99.90;;;;;;4972527;28;20101;-69
2021/08/17 05:43:09;;;;;;;3.67;1.80;;;15.30;99.90;;;;;;4972249;28;20423;-66
2021/08/17 05:45:56;;;;;;;5.25;2.05;;;15.40;99.90;;;;;;4973305;28;20045;-66
2021/08/17 05:48:23;;;;;;;2.45;2.25;;;15.30;99.90;;;;;;4973329;28;20046;-70
2021/08/17 05:50:50;;;;;;;3.25;2.00;;;15.30;99.90;;;;;;4972533;28;20109;-68
2021/08/17 05:53:17;;;;;;;2.97;1.65;;;15.30;99.90;;;;;;4971072;28;20124;-66
2021/08/17 05:55:44;;;;;;;4.55;1.70;;;15.30;99.90;;;;;;4972587;28;20043;-70
2021/08/17 05:58:11;;;;;;;5.38;2.05;;;15.30;99.90;;;;;;4972453;28;20165;-66
2021/08/17 06:00:38;;;;;;;2.90;1.55;;;15.30;99.90;;;;;;4972412;28;20116;-65
2021/08/17 06:03:05;;;;;;;7.10;1.75;;;15.20;99.90;;;;;;4972337;28;20051;-66
2021/08/17 06:05:32;;;;;;;2.40;1.10;;;15.20;99.90;;;;;;4970648;28;20429;-68
2021/08/17 06:07:59;;;;;;;5.55;1.63;;;15.20;99.90;;;;;;4971219;28;20074;-69
2021/08/17 06:10:26;;;;;;;2.08;0.95;;;15.30;99.90;;;;;;4972105;28;20133;-70
2021/08/17 06:12:53;;;;;;;4.18;1.40;;;15.30;99.90;;;;;;4972120;28;20146;-66
2021/08/17 06:15:20;;;;;;;3.38;1.65;;;15.30;99.90;;;;;;4970588;28;20551;-66
2021/08/17 06:17:48;;;;;;;1.42;1.02;;;15.20;99.90;;;;;;4972164;28;20070;-67
2021/08/17 06:20:16;;;;;;;3.17;1.58;;;15.20;99.90;;;;;;4971876;28;20055;-66
2021/08/17 06:22:43;;;;;;;1.23;0.85;;;15.20;99.90;;;;;;4972397;28;20067;-66
2021/08/17 06:25:11;;;;;;;2.63;1.33;;;15.20;99.90;;;;;;4972107;28;20070;-68
2021/08/17 06:27:37;;;;;;;3.63;1.55;;;15.20;99.90;;;;;;4970987;28;20042;-66
2021/08/17 06:30:07;;;;;;;4.03;1.92;;;15.20;99.90;;;;;;4971694;28;20117;-67
2021/08/17 06:32:55;;;;;;;2.08;1.23;;;15.20;99.90;;;;;;4971912;28;20098;-69
2021/08/17 06:35:22;;;;;;;5.15;1.40;;;15.10;99.90;;;;;;4970180;28;20518;-65
2021/08/17 06:37:50;;;;;;;3.58;2.03;;;15.10;99.90;;;;;;4986660;28;20378;-67
2021/08/17 06:40:17;;;;;;;2.20;1.33;;;15.10;99.90;;;;;;4972067;28;20062;-65
2021/08/17 06:42:44;;;;;;;6.03;1.60;;;15.10;99.90;;;;;;4972206;28;20134;-64
2021/08/17 06:45:12;;;;;;;5.88;1.92;;;15.10;99.90;;;;;;4971849;28;20043;-68
2021/08/17 06:47:46;;;;;;;3.40;0.93;;;15.10;99.90;;;;;;4970298;28;20050;-65
2021/08/17 06:50:33;;;;;;;3.40;1.45;;;15.10;99.90;;;;;;4971686;28;20134;-65
2021/08/17 06:52:59;;;;;;;3.42;1.40;;;15.10;99.90;;;;;;4971931;28;20050;-63
2021/08/17 06:55:26;;;;;;;4.25;1.23;;;15.10;99.90;;;;;;4970387;28;20062;-67
2021/08/17 06:57:53;;;;;;;1.83;1.05;;;15.10;99.90;;;;;;4972200;28;20130;-67
2021/08/17 07:00:22;;;;;;;1.33;1.10;;;15.20;99.90;;;;;;4971732;28;20046;-64
2021/08/17 07:02:49;;;;;;;4.05;1.42;;;15.20;99.90;;;;;;4971720;28;20142;-67
2021/08/17 07:05:35;;;;;;;2.78;1.75;;;15.20;99.90;;;;;;4970301;28;20101;-66
2021/08/17 07:08:04;;;;;;;2.15;1.15;;;15.10;99.90;;;;;;4971734;28;20043;-65
2021/08/17 07:10:32;;;;;;;1.95;1.13;;;15.10;99.90;;;;;;4971479;28;20397;-64
2021/08/17 07:13:18;;;;;;;3.67;1.08;;;15.20;99.90;;;;;;4970010;28;20109;-65
2021/08/17 07:15:46;;;;;;;4.18;1.25;;;15.20;99.90;;;;;;4971437;28;20046;-68
2021/08/17 07:18:13;;;;;;;6.25;1.70;;;15.20;99.90;;;;;;4972474;28;20047;-66
2021/08/17 07:20:40;;;;;;;2.05;1.48;;;15.20;99.90;;;;;;4975041;28;20046;-68
2021/08/17 07:23:07;;;;;;;2.05;0.82;;;15.30;99.90;;;;;;4990679;28;20328;-66
2021/08/17 07:25:35;;;;;;;5.53;1.00;;;15.30;99.90;;;;;;4974176;28;20073;-65
2021/08/17 07:28:03;;;;;;;2.42;0.93;;;15.30;99.90;;;;;;4975140;28;20099;-64
2021/08/17 07:30:31;;;;;;;1.13;1.02;;;15.40;99.90;;;;;;4975178;28;20049;-66
2021/08/17 07:32:58;;;;;;;1.33;0.77;;;15.40;99.90;;;;;;4975372;28;20070;-65
2021/08/17 07:35:25;;;;;;;3.28;1.08;;;15.50;99.90;;;;;;4973815;28;20051;-67
2021/08/17 07:37:52;;;;;;;1.80;0.93;;;15.50;99.90;;;;;;4975182;28;20050;-66
2021/08/17 07:40:20;;;;;;;3.58;2.47;;;15.60;99.90;;;;;;4975316;28;20046;-64
2021/08/17 07:42:48;;;;;;;4.00;1.55;;;15.70;99.90;;;;;;4975243;28;20548;-65
2021/08/17 07:45:16;;;;;;;3.03;1.10;;;15.80;99.90;;;;;;4974317;28;20057;-66
2021/08/17 07:47:44;;;;;;;6.38;1.60;;;15.80;99.90;;;;;;4974231;28;20066;-66
2021/08/17 07:50:12;;;;;;;2.92;1.83;;;15.90;99.90;;;;;;4974961;28;20429;-65
2021/08/17 07:52:40;;;;;;;2.92;0.77;;;16.00;99.90;;;;;;4974505;28;20088;-64
2021/08/17 07:55:10;;;;;;;1.55;0.90;;;15.90;99.90;;;;;;4975019;28;20488;-64
2021/08/17 07:57:38;;;;;;;1.55;0.90;;;16.00;99.90;;;;;;4973182;28;20055;-67
2021/08/17 08:00:08;;;;;;;2.03;1.25;;;16.00;99.90;;;;;;4974959;28;20073;-64
2021/08/17 08:02:35;;;;;;;3.65;1.00;;;16.00;99.90;;;;;;4974970;28;20054;-68
2021/08/17 08:05:03;;;;;;;1.92;1.15;;;16.10;99.90;;;;;;4974972;28;20467;-68
2021/08/17 08:07:30;;;;;;;3.00;1.27;;;16.10;99.90;;;;;;4973146;28;20513;-69
2021/08/17 08:09:57;;;;;;;2.92;1.10;;;16.10;99.90;;;;;;4974985;28;20093;-67
2021/08/17 08:12:24;;;;;;;1.58;0.98;;;16.20;99.90;;;;;;4974788;28;20058;-71
2021/08/17 08:14:52;;;;;;;4.18;0.80;;;16.10;99.90;;;;;;4974866;28;20109;-65
2021/08/17 08:17:19;;;;;;;4.45;1.55;;;16.10;99.90;;;;;;4974006;28;20046;-67
2021/08/17 08:19:46;;;;;;;3.60;0.80;;;16.20;99.90;;;;;;4974047;28;20069;-68
2021/08/17 08:22:13;;;;;;;5.68;1.30;;;16.10;99.90;;;;;;4974137;28;20055;-66
2021/08/17 08:24:39;;;;;;;2.80;1.25;;;16.10;99.90;;;;;;4973747;28;20134;-68
2021/08/17 08:27:06;;;;;;;4.30;1.65;;;16.10;99.90;;;;;;4974112;28;20047;-67
2021/08/17 08:29:33;;;;;;;4.53;1.55;;;16.10;99.90;;;;;;4971439;28;20070;-68
2021/08/17 08:32:00;;;;;;;2.53;1.48;;;16.10;99.90;;;;;;4974090;28;20047;-67
2021/08/17 08:34:27;;;;;;;3.53;0.90;;;16.10;99.90;;;;;;4974232;28;20493;-66
2021/08/17 08:36:54;;;;;;;4.22;1.35;;;16.10;99.90;;;;;;4974317;28;20450;-68
2021/08/17 08:39:23;;;;;;;5.07;1.40;;;16.20;99.90;;;;;;4972526;28;20082;-67
2021/08/17 08:41:54;;;;;;;3.45;1.58;;;16.20;99.90;;;;;;4974169;28;20495;-68
2021/08/17 08:44:21;;;;;;;5.32;1.45;;;16.30;99.90;;;;;;4973861;28;20082;-66
2021/08/17 08:46:50;;;;;;;2.45;1.17;;;16.30;99.90;;;;;;4973686;28;20464;-66
2021/08/17 08:49:18;;;;;;;3.53;1.20;;;16.40;99.90;;;;;;4972166;28;20047;-68
2021/08/17 08:51:45;;;;;;;2.30;1.05;;;16.40;99.90;;;;;;4973801;28;20054;-64
2021/08/17 08:54:12;;;;;;;2.45;1.17;;;16.40;99.90;;;;;;4973384;28;20047;-65
2021/08/17 08:56:39;;;;;;;2.33;1.23;;;16.40;99.90;;;;;;4973836;28;20047;-64
2021/08/17 08:59:06;;;;;;;4.35;1.52;;;16.40;99.90;;;;;;4973714;28;20106;-64
2021/08/17 09:01:33;;;;;;;3.97;1.02;;;16.40;99.90;;;;;;4972094;28;20070;-63
2021/08/17 09:04:00;;;;;;;2.28;1.92;;;16.40;99.90;;;;;;4973418;28;20051;-64
2021/08/17 09:06:33;;;;;;;5.93;1.75;;;16.50;99.90;;;;;;4973445;28;20090;-63
2021/08/17 09:09:20;;;;;;;2.35;1.58;;;16.50;99.90;;;;;;4973539;28;20043;-66
2021/08/17 09:11:52;;;;;;;3.75;0.98;;;16.60;99.90;;;;;;4972236;28;20105;-66
2021/08/17 09:14:33;;;;;;;1.35;1.08;;;16.60;99.90;;;;;;4973658;28;20043;-63
2021/08/17 09:17:06;;;;;;;3.20;1.55;;;16.70;99.90;;;;;;4973512;28;20126;-64
2021/08/17 09:19:53;;;;;;;2.45;1.27;;;16.80;99.90;;;;;;4971903;28;20557;-66
2021/08/17 09:22:22;;;;;;;3.72;1.17;;;16.80;99.90;;;;;;4973413;28;20078;-65
2021/08/17 09:24:55;;;;;;;5.43;1.40;;;16.90;99.90;;;;;;4987177;28;20521;-66
2021/08/17 09:27:28;;;;;;;2.67;1.17;;;17.00;99.90;;;;;;4971516;28;20046;-67
2021/08/17 09:30:08;;;;;;;8.70;2.67;;;17.10;99.90;;;;;;4973103;28;20077;-68
2021/08/17 09:32:50;;;;;;;2.72;1.00;;;17.10;99.90;;;;;;4973089;28;20117;-66
2021/08/17 09:35:20;;;;;;;1.80;1.17;;;17.30;99.90;;;;;;4971426;28;20055;-66
2021/08/17 09:38:11;;;;;;;1.75;1.33;;;17.40;99.90;;;;;;4972993;28;20134;-67
2021/08/17 09:40:41;;;;;;;1.80;1.10;;;17.30;99.90;;;;;;4972811;28;20118;-63
2021/08/17 09:43:19;;;;;;;3.72;1.40;;;17.30;99.90;;;;;;4972603;28;20371;-63
2021/08/17 09:45:47;;;;;;;3.42;1.65;;;17.30;99.90;;;;;;4971457;28;20047;-64
2021/08/17 09:48:16;;;;;;;1.95;1.48;;;17.30;99.90;;;;;;4972768;28;20054;-64
2021/08/17 09:50:44;;;;;;;6.65;1.63;;;17.40;99.90;;;;;;4972530;28;20097;-63
2021/08/17 09:53:16;;;;;;;4.07;1.80;;;17.40;99.90;;;;;;4972841;28;20370;-64
2021/08/17 09:55:55;;;;;;;2.08;1.33;;;17.50;99.90;;;;;;4970865;28;20046;-65
2021/08/17 09:58:26;;;;;;;2.28;1.80;;;17.50;99.90;;;;;;4972635;28;20106;-68
2021/08/17 10:01:00;;;;;;;2.78;1.27;;;17.50;99.90;;;;;;4972448;28;20106;-63
2021/08/17 10:03:28;;;;;;;5.05;2.30;;;17.30;99.90;;;;;;4970616;28;20138;-64
2021/08/17 10:05:56;;;;;;;10.60;1.98;;;17.20;99.90;;;;;;4971923;28;20047;-66
2021/08/17 10:08:27;;;;;;;4.22;1.25;;;17.10;99.90;;;;;;4972439;28;20082;-64
2021/08/17 10:10:56;;;;;;;1.58;0.98;;;17.10;99.90;;;;;;4972252;28;20117;-63
2021/08/17 10:13:25;;;;;;;3.72;1.10;;;17.00;99.90;;;;;;4970485;28;20059;-70
2021/08/17 10:15:52;;;;;;;4.57;1.70;;;17.00;99.90;;;;;;4972669;28;20046;-65
2021/08/17 10:18:29;;;;;;;2.40;1.15;;;17.00;99.90;;;;;;4972962;28;20053;-67
2021/08/17 10:20:59;;;;;;;2.20;1.52;;;17.00;99.90;;;;;;4972141;28;20055;-65
2021/08/17 10:23:27;;;;;;;7.20;2.58;;;17.10;99.90;;;;;;4970833;28;20051;-67
2021/08/17 10:25:56;;;;;;;3.97;1.80;;;17.10;99.90;;;;;;4972301;28;20047;-66
2021/08/17 10:28:35;;;;;;;3.70;1.58;;;17.00;99.90;;;;;;4972095;28;20052;-69
2021/08/17 10:31:14;;;;;;;7.90;1.77;;;17.00;99.90;;;;;;4972334;28;20193;-66
2021/08/17 10:33:49;;;;;;;6.85;2.00;;;17.00;99.90;;;;;;4985395;28;20473;-66
2021/08/17 10:36:31;;;;;;;2.50;1.33;;;16.90;99.90;;;;;;4972130;28;20054;-65
2021/08/17 10:38:59;;;;;;;4.65;1.42;;;16.90;99.90;;;;;;4972159;28;20426;-66
2021/08/17 10:41:32;;;;;;;2.75;2.30;;;16.80;99.90;;;;;;4970288;28;20046;-67
2021/08/17 10:43:59;;;;;;;4.22;1.40;;;16.80;99.90;;;;;;4972065;28;20050;-64
2021/08/17 10:46:56;;;;;;;3.38;1.60;;;16.90;99.90;;;;;;4971705;28;20067;-64
2021/08/17 10:49:34;;;;;;;4.40;1.17;;;16.90;99.90;;;;;;4969476;28;20137;-63
2021/08/17 10:52:04;;;;;;;7.03;1.42;;;17.00;99.90;;;;;;4971755;28;20109;-63
2021/08/17 10:54:34;;;;;;;5.32;1.75;;;17.20;99.90;;;;;;4971032;28;20114;-64
2021/08/17 10:57:21;;;;;;;4.55;1.30;;;17.50;99.90;;;;;;4971518;28;20046;-66
2021/08/17 10:59:50;;;;;;;4.18;1.27;;;17.80;99.90;;;;;;4970376;28;20084;-63
2021/08/17 11:02:22;;;;;;;3.92;1.00;;;17.90;99.90;;;;;;4971220;28;20055;-64
2021/08/17 11:04:50;;;;;;;2.72;1.23;;;18.00;99.90;;;;;;4971341;28;20051;-65
2021/08/17 11:07:32;;;;;;;3.08;1.55;;;18.20;99.90;;;;;;4969609;28;20081;-64
2021/08/17 11:10:09;;;;;;;6.05;1.65;;;18.20;99.90;;;;;;4971263;28;20042;-64
2021/08/17 11:12:38;;;;;;;2.90;1.73;;;18.50;99.90;;;;;;4971532;28;20105;-63
2021/08/17 11:15:08;;;;;;;2.95;1.10;;;18.50;99.90;;;;;;4971299;28;20042;-65
2021/08/17 11:17:35;;;;;;;;;;;18.60;99.90;;;;;;4971675;28;20102;-64
2021/08/17 11:20:05;;;;;;;5.15;1.42;;;18.70;99.90;;;;;;4973226;28;19976;-66
2021/08/17 11:22:36;;;;;;;2.20;1.20;;;18.90;99.90;;;;;;4971145;28;20050;-67
2021/08/17 11:25:07;;;;;;;4.18;1.40;;;19.10;99.90;;;;;;4971588;28;20533;-67
2021/08/17 11:27:40;;;;;;;2.20;1.20;;;19.30;99.90;;;;;;4969507;28;20051;-67
2021/08/17 11:30:12;;;;;;;3.28;1.55;;;19.40;99.90;;;;;;4971087;28;20055;-66
2021/08/17 11:32:54;;;;;;;4.35;1.30;;;19.60;99.90;;;;;;4971263;28;20097;-65
2021/08/17 11:35:23;;;;;;;2.25;1.52;;;19.70;99.90;;;;;;4969977;28;20540;-68
2021/08/17 11:37:51;;;;;;;2.08;1.20;;;19.80;99.90;;;;;;4971056;28;20097;-64
2021/08/17 11:40:23;;;;;;;2.70;1.08;;;19.80;99.90;;;;;;4971260;28;20089;-66
2021/08/17 11:42:56;;;;;;;4.60;1.73;;;19.70;99.90;;;;;;4971314;28;20070;-64
2021/08/17 11:45:27;;;;;;;4.18;1.40;;;19.60;99.90;;;;;;4969570;28;20109;-69
2021/08/17 11:47:55;;;;;;;2.53;1.27;;;19.70;99.90;;;;;;4971134;28;20119;-68
2021/08/17 11:50:23;;;;;;;4.35;1.42;;;19.70;99.90;;;;;;4971172;28;20046;-67
2021/08/17 11:52:52;;;;;;;2.42;1.30;;;19.90;99.90;;;;;;4971286;28;20496;-65
2021/08/17 11:55:24;;;;;;;3.03;1.92;;;19.90;99.90;;;;;;4969663;28;20450;-68
2021/08/17 11:57:58;;;;;;;2.50;1.33;;;20.00;99.90;;;;;;4970958;28;20405;-65
2021/08/17 12:00:29;;;;;;;2.25;0.70;;;20.00;99.90;;;;;;4970878;28;20105;-71
2021/08/17 12:03:02;;;;;;;2.53;0.80;;;20.20;99.90;;;;;;4971169;28;20058;-65
2021/08/17 12:05:34;;;;;;;2.42;0.90;;;20.20;99.90;;;;;;4972337;28;20046;-65
2021/08/17 12:08:09;;;;;;;4.15;1.17;;;20.00;99.90;;;;;;4974488;28;20522;-65
2021/08/17 12:10:37;;;;;;;2.17;1.23;;;19.90;99.90;;;;;;4974800;28;20097;-68
2021/08/17 12:13:05;;;;;;;3.88;1.08;;;19.90;99.90;;;;;;4989595;28;20045;-66
2021/08/17 12:15:58;;;;;;;1.73;1.13;;;20.00;99.90;;;;;;4972628;28;20085;-68
2021/08/17 12:18:31;;;;;;;8.23;1.80;;;20.00;99.90;;;;;;4972100;28;20050;-70
2021/08/17 12:21:09;;;;;;;2.70;1.08;;;20.00;99.90;;;;;;4974406;28;20572;-66
2021/08/17 12:23:41;;;;;;;2.00;1.08;;;19.90;99.90;;;;;;4972955;28;20114;-65
2021/08/17 12:26:15;;;;;;;2.72;1.10;;;19.70;99.90;;;;;;4974480;28;20097;-65
2021/08/17 12:28:44;;;;;;;1.77;1.15;;;19.60;99.90;;;;;;4974350;28;20054;-65
2021/08/17 12:31:29;;;;;;;2.57;1.30;;;19.50;99.90;;;;;;4974150;28;20110;-69
2021/08/17 12:33:59;;;;;;;3.00;0.88;;;19.30;99.90;;;;;;4973128;28;20445;-65
2021/08/17 12:36:41;;;;;;;1.35;1.10;;;19.20;99.90;;;;;;4973888;28;20073;-68
2021/08/17 12:39:29;;;;;;;2.28;1.38;;;19.20;99.90;;;;;;4974366;28;20497;-65
2021/08/17 12:41:59;;;;;;;2.00;1.10;;;19.10;99.90;;;;;;4973001;28;20047;-65
2021/08/17 12:44:33;;;;;;;2.10;1.53;;;19.20;99.90;;;;;;4974180;28;20097;-71
2021/08/17 12:47:23;;;;;;;2.58;1.15;;;19.30;99.90;;;;;;4973926;28;20168;-64
2021/08/17 12:49:50;;;;;;;2.45;1.67;;;19.30;99.90;;;;;;4972718;28;20093;-65
2021/08/17 12:52:33;;;;;;;1.92;1.38;;;19.50;99.90;;;;;;4973752;28;20070;-65
2021/08/17 12:55:09;;;;;;;1.35;1.02;;;19.80;99.90;;;;;;4973639;28;20476;-63
2021/08/17 12:57:56;;;;;;;2.70;1.20;;;20.20;99.90;;;;;;4972301;28;20191;-67
2021/08/17 13:00:26;;;;;;;3.83;1.00;;;20.70;99.90;;;;;;4973715;28;20051;-65